sensor_id;sensor_type;location;lat;lon;timestamp;temperature;humidity
16437;DHT22;8328;52.206;21.006;2023-04-06T00:01:10;3.90;65.80
16437;DHT22;8328;52.206;21.006;2023-04-06T00:03:36;3.90;67.40
16437;DHT22;8328;52.206;21.006;2023-04-06T00:06:03;4.00;67.00
16437;DHT22;8328;52.206;21.006;2023-04-06T00:08:28;4.10;67.30
16437;DHT22;8328;52.206;21.006;2023-04-06T00:10:54;4.00;66.00
16437;DHT22;8328;52.206;21.006;2023-04-06T00:13:21;3.60;66.20
16437;DHT22;8328;52.206;21.006;2023-04-06T00:15:46;4.10;66.60
16437;DHT22;8328;52.206;21.006;2023-04-06T00:18:12;4.00;66.20
16437;DHT22;8328;52.206;21.006;2023-04-06T00:20:38;4.10;66.60
16437;DHT22;8328;52.206;21.006;2023-04-06T00:23:04;4.00;66.60
16437;DHT22;8328;52.206;21.006;2023-04-06T00:25:30;4.00;67.50
16437;DHT22;8328;52.206;21.006;2023-04-06T00:27:55;4.00;67.30
16437;DHT22;8328;52.206;21.006;2023-04-06T00:30:21;3.90;67.60
16437;DHT22;8328;52.206;21.006;2023-04-06T00:32:47;3.90;67.70
16437;DHT22;8328;52.206;21.006;2023-04-06T00:35:13;3.90;67.80
16437;DHT22;8328;52.206;21.006;2023-04-06T00:37:40;3.90;67.10
16437;DHT22;8328;52.206;21.006;2023-04-06T00:40:06;3.80;67.60
16437;DHT22;8328;52.206;21.006;2023-04-06T00:42:32;3.80;68.40
16437;DHT22;8328;52.206;21.006;2023-04-06T00:45:00;3.70;68.80
16437;DHT22;8328;52.206;21.006;2023-04-06T00:47:26;3.80;69.20
16437;DHT22;8328;52.206;21.006;2023-04-06T00:49:53;3.90;69.30
16437;DHT22;8328;52.206;21.006;2023-04-06T00:52:19;3.90;69.20
16437;DHT22;8328;52.206;21.006;2023-04-06T00:54:45;3.90;69.20
16437;DHT22;8328;52.206;21.006;2023-04-06T00:57:12;4.10;68.70
16437;DHT22;8328;52.206;21.006;2023-04-06T00:59:38;3.90;68.50
16437;DHT22;8328;52.206;21.006;2023-04-06T01:02:04;3.80;69.10
16437;DHT22;8328;52.206;21.006;2023-04-06T01:04:31;3.80;69.00
16437;DHT22;8328;52.206;21.006;2023-04-06T01:06:57;3.80;69.80
16437;DHT22;8328;52.206;21.006;2023-04-06T01:09:22;3.80;69.20
16437;DHT22;8328;52.206;21.006;2023-04-06T01:11:48;3.20;69.60
16437;DHT22;8328;52.206;21.006;2023-04-06T01:14:14;3.70;70.00
16437;DHT22;8328;52.206;21.006;2023-04-06T01:16:41;3.60;69.80
16437;DHT22;8328;52.206;21.006;2023-04-06T01:19:11;3.90;69.60
16437;DHT22;8328;52.206;21.006;2023-04-06T01:21:38;4.10;69.50
16437;DHT22;8328;52.206;21.006;2023-04-06T01:24:05;4.20;69.10
16437;DHT22;8328;52.206;21.006;2023-04-06T01:26:32;4.10;68.50
16437;DHT22;8328;52.206;21.006;2023-04-06T01:28:58;4.20;69.10
16437;DHT22;8328;52.206;21.006;2023-04-06T01:31:25;4.20;68.90
16437;DHT22;8328;52.206;21.006;2023-04-06T01:33:52;4.30;69.20
16437;DHT22;8328;52.206;21.006;2023-04-06T01:36:18;4.20;68.30
16437;DHT22;8328;52.206;21.006;2023-04-06T01:38:46;4.30;68.50
16437;DHT22;8328;52.206;21.006;2023-04-06T01:41:12;4.10;67.70
16437;DHT22;8328;52.206;21.006;2023-04-06T01:43:38;4.10;68.30
16437;DHT22;8328;52.206;21.006;2023-04-06T01:46:04;4.10;68.20
16437;DHT22;8328;52.206;21.006;2023-04-06T01:48:30;4.10;68.30
16437;DHT22;8328;52.206;21.006;2023-04-06T01:50:56;4.00;68.20
16437;DHT22;8328;52.206;21.006;2023-04-06T01:53:22;3.90;68.70
16437;DHT22;8328;52.206;21.006;2023-04-06T01:55:48;3.80;68.90
16437;DHT22;8328;52.206;21.006;2023-04-06T01:58:14;3.90;69.90
16437;DHT22;8328;52.206;21.006;2023-04-06T02:00:40;3.90;70.00
16437;DHT22;8328;52.206;21.006;2023-04-06T02:03:06;4.00;70.10
16437;DHT22;8328;52.206;21.006;2023-04-06T02:05:33;4.10;70.20
16437;DHT22;8328;52.206;21.006;2023-04-06T02:08:04;4.10;70.30
16437;DHT22;8328;52.206;21.006;2023-04-06T02:10:31;4.10;69.60
16437;DHT22;8328;52.206;21.006;2023-04-06T02:12:57;4.10;70.10
16437;DHT22;8328;52.206;21.006;2023-04-06T02:15:24;4.00;70.20
16437;DHT22;8328;52.206;21.006;2023-04-06T02:17:50;4.00;70.80
16437;DHT22;8328;52.206;21.006;2023-04-06T02:20:16;4.00;71.20
16437;DHT22;8328;52.206;21.006;2023-04-06T02:22:42;4.10;71.80
16437;DHT22;8328;52.206;21.006;2023-04-06T02:25:08;4.10;71.10
16437;DHT22;8328;52.206;21.006;2023-04-06T02:27:34;4.20;71.80
16437;DHT22;8328;52.206;21.006;2023-04-06T02:30:00;4.10;71.90
16437;DHT22;8328;52.206;21.006;2023-04-06T02:32:26;4.00;72.20
16437;DHT22;8328;52.206;21.006;2023-04-06T02:34:52;4.00;73.00
16437;DHT22;8328;52.206;21.006;2023-04-06T02:37:17;4.10;73.40
16437;DHT22;8328;52.206;21.006;2023-04-06T02:39:43;4.00;73.00
16437;DHT22;8328;52.206;21.006;2023-04-06T02:42:09;3.90;73.30
16437;DHT22;8328;52.206;21.006;2023-04-06T02:44:35;4.00;73.70
16437;DHT22;8328;52.206;21.006;2023-04-06T02:47:00;4.00;73.60
16437;DHT22;8328;52.206;21.006;2023-04-06T02:49:26;4.00;73.70
16437;DHT22;8328;52.206;21.006;2023-04-06T02:51:52;3.90;73.60
16437;DHT22;8328;52.206;21.006;2023-04-06T02:54:18;4.00;74.00
16437;DHT22;8328;52.206;21.006;2023-04-06T02:56:46;4.00;74.10
16437;DHT22;8328;52.206;21.006;2023-04-06T02:59:12;3.90;74.40
16437;DHT22;8328;52.206;21.006;2023-04-06T03:01:37;3.90;74.90
16437;DHT22;8328;52.206;21.006;2023-04-06T03:04:03;3.80;75.20
16437;DHT22;8328;52.206;21.006;2023-04-06T03:06:29;3.80;75.60
16437;DHT22;8328;52.206;21.006;2023-04-06T03:08:55;3.80;76.20
16437;DHT22;8328;52.206;21.006;2023-04-06T03:11:21;3.90;77.00
16437;DHT22;8328;52.206;21.006;2023-04-06T03:13:47;3.90;76.50
16437;DHT22;8328;52.206;21.006;2023-04-06T03:16:13;3.80;76.50
16437;DHT22;8328;52.206;21.006;2023-04-06T03:18:39;3.00;77.30
16437;DHT22;8328;52.206;21.006;2023-04-06T03:21:05;3.90;77.90
16437;DHT22;8328;52.206;21.006;2023-04-06T03:23:30;3.90;78.30
16437;DHT22;8328;52.206;21.006;2023-04-06T03:25:56;3.90;78.90
16437;DHT22;8328;52.206;21.006;2023-04-06T03:28:22;3.90;78.80
16437;DHT22;8328;52.206;21.006;2023-04-06T03:30:48;3.60;79.10
16437;DHT22;8328;52.206;21.006;2023-04-06T03:33:14;3.90;79.90
16437;DHT22;8328;52.206;21.006;2023-04-06T03:35:40;3.70;79.80
16437;DHT22;8328;52.206;21.006;2023-04-06T03:38:06;3.60;81.60
16437;DHT22;8328;52.206;21.006;2023-04-06T03:40:32;3.50;82.20
16437;DHT22;8328;52.206;21.006;2023-04-06T03:42:57;3.40;82.30
16437;DHT22;8328;52.206;21.006;2023-04-06T03:45:23;3.40;84.00
16437;DHT22;8328;52.206;21.006;2023-04-06T03:47:49;3.30;83.70
16437;DHT22;8328;52.206;21.006;2023-04-06T03:50:15;3.20;84.20
16437;DHT22;8328;52.206;21.006;2023-04-06T03:52:42;2.20;83.80
16437;DHT22;8328;52.206;21.006;2023-04-06T03:55:08;3.30;85.00
16437;DHT22;8328;52.206;21.006;2023-04-06T03:57:34;3.30;84.70
16437;DHT22;8328;52.206;21.006;2023-04-06T04:00:00;3.30;85.00
16437;DHT22;8328;52.206;21.006;2023-04-06T04:02:26;3.30;85.00
16437;DHT22;8328;52.206;21.006;2023-04-06T04:04:52;3.20;85.30
16437;DHT22;8328;52.206;21.006;2023-04-06T04:07:17;3.20;86.50
16437;DHT22;8328;52.206;21.006;2023-04-06T04:09:43;3.30;86.30
16437;DHT22;8328;52.206;21.006;2023-04-06T04:12:09;3.30;86.40
16437;DHT22;8328;52.206;21.006;2023-04-06T04:14:35;3.40;86.60
16437;DHT22;8328;52.206;21.006;2023-04-06T04:17:00;3.50;86.80
16437;DHT22;8328;52.206;21.006;2023-04-06T04:19:26;3.40;86.20
16437;DHT22;8328;52.206;21.006;2023-04-06T04:21:52;3.30;86.60
16437;DHT22;8328;52.206;21.006;2023-04-06T04:24:18;3.40;86.90
16437;DHT22;8328;52.206;21.006;2023-04-06T04:26:43;3.40;87.50
16437;DHT22;8328;52.206;21.006;2023-04-06T04:29:10;3.40;87.90
16437;DHT22;8328;52.206;21.006;2023-04-06T04:31:35;3.50;87.90
16437;DHT22;8328;52.206;21.006;2023-04-06T04:34:01;3.40;88.30
16437;DHT22;8328;52.206;21.006;2023-04-06T04:36:27;3.50;88.90
16437;DHT22;8328;52.206;21.006;2023-04-06T04:38:53;3.30;88.80
16437;DHT22;8328;52.206;21.006;2023-04-06T04:41:19;2.70;89.20
16437;DHT22;8328;52.206;21.006;2023-04-06T04:43:44;3.40;89.30
16437;DHT22;8328;52.206;21.006;2023-04-06T04:46:11;3.40;89.40
16437;DHT22;8328;52.206;21.006;2023-04-06T04:48:37;3.50;90.30
16437;DHT22;8328;52.206;21.006;2023-04-06T04:51:04;3.70;90.00
16437;DHT22;8328;52.206;21.006;2023-04-06T04:53:30;3.80;88.80
16437;DHT22;8328;52.206;21.006;2023-04-06T04:55:56;3.80;88.60
16437;DHT22;8328;52.206;21.006;2023-04-06T04:58:21;3.80;88.90
16437;DHT22;8328;52.206;21.006;2023-04-06T05:00:59;3.90;88.70
16437;DHT22;8328;52.206;21.006;2023-04-06T05:03:26;1.90;87.30
16437;DHT22;8328;52.206;21.006;2023-04-06T05:05:52;4.10;88.70
16437;DHT22;8328;52.206;21.006;2023-04-06T05:08:18;4.20;89.60
16437;DHT22;8328;52.206;21.006;2023-04-06T05:10:44;4.30;86.90
16437;DHT22;8328;52.206;21.006;2023-04-06T05:13:12;4.30;86.90
16437;DHT22;8328;52.206;21.006;2023-04-06T05:15:38;4.60;91.40
16437;DHT22;8328;52.206;21.006;2023-04-06T05:18:05;4.70;88.50
16437;DHT22;8328;52.206;21.006;2023-04-06T05:20:34;4.60;86.90
16437;DHT22;8328;52.206;21.006;2023-04-06T05:23:00;4.50;87.20
16437;DHT22;8328;52.206;21.006;2023-04-06T05:25:26;4.60;88.70
16437;DHT22;8328;52.206;21.006;2023-04-06T05:27:52;4.60;87.30
16437;DHT22;8328;52.206;21.006;2023-04-06T05:30:18;4.90;88.90
16437;DHT22;8328;52.206;21.006;2023-04-06T05:32:44;4.70;86.20
16437;DHT22;8328;52.206;21.006;2023-04-06T05:35:10;5.00;88.50
16437;DHT22;8328;52.206;21.006;2023-04-06T05:37:38;5.10;87.40
16437;DHT22;8328;52.206;21.006;2023-04-06T05:40:07;5.10;86.20
16437;DHT22;8328;52.206;21.006;2023-04-06T05:42:44;5.20;86.60
16437;DHT22;8328;52.206;21.006;2023-04-06T05:45:11;5.50;86.30
16437;DHT22;8328;52.206;21.006;2023-04-06T05:47:43;5.70;84.70
16437;DHT22;8328;52.206;21.006;2023-04-06T05:50:37;4.60;83.50
16437;DHT22;8328;52.206;21.006;2023-04-06T05:53:04;6.10;82.20
16437;DHT22;8328;52.206;21.006;2023-04-06T05:55:29;5.90;82.50
16437;DHT22;8328;52.206;21.006;2023-04-06T05:57:55;5.90;81.80
16437;DHT22;8328;52.206;21.006;2023-04-06T06:00:21;5.90;82.30
16437;DHT22;8328;52.206;21.006;2023-04-06T06:02:47;5.90;82.00
16437;DHT22;8328;52.206;21.006;2023-04-06T06:05:13;5.90;82.70
16437;DHT22;8328;52.206;21.006;2023-04-06T06:07:38;6.00;81.80
16437;DHT22;8328;52.206;21.006;2023-04-06T06:10:06;6.10;81.80
16437;DHT22;8328;52.206;21.006;2023-04-06T06:12:32;6.00;80.30
16437;DHT22;8328;52.206;21.006;2023-04-06T06:14:57;6.10;81.50
16437;DHT22;8328;52.206;21.006;2023-04-06T06:17:23;6.30;81.50
16437;DHT22;8328;52.206;21.006;2023-04-06T06:19:49;6.30;79.40
16437;DHT22;8328;52.206;21.006;2023-04-06T06:22:15;6.40;79.90
16437;DHT22;8328;52.206;21.006;2023-04-06T06:24:41;6.40;79.10
16437;DHT22;8328;52.206;21.006;2023-04-06T06:27:07;6.30;79.60
16437;DHT22;8328;52.206;21.006;2023-04-06T06:29:33;6.30;78.90
16437;DHT22;8328;52.206;21.006;2023-04-06T06:31:59;6.40;80.30
16437;DHT22;8328;52.206;21.006;2023-04-06T06:34:25;6.40;78.70
16437;DHT22;8328;52.206;21.006;2023-04-06T06:36:51;6.30;78.40
16437;DHT22;8328;52.206;21.006;2023-04-06T06:39:17;6.40;78.10
16437;DHT22;8328;52.206;21.006;2023-04-06T06:41:44;6.60;78.80
16437;DHT22;8328;52.206;21.006;2023-04-06T06:44:10;6.60;76.40
16437;DHT22;8328;52.206;21.006;2023-04-06T06:46:36;6.40;76.30
16437;DHT22;8328;52.206;21.006;2023-04-06T06:49:03;6.40;77.80
16437;DHT22;8328;52.206;21.006;2023-04-06T06:51:32;6.50;77.50
16437;DHT22;8328;52.206;21.006;2023-04-06T06:53:58;6.60;77.90
16437;DHT22;8328;52.206;21.006;2023-04-06T06:56:24;6.50;77.10
16437;DHT22;8328;52.206;21.006;2023-04-06T06:58:53;6.50;76.10
16437;DHT22;8328;52.206;21.006;2023-04-06T07:01:19;6.50;76.20
16437;DHT22;8328;52.206;21.006;2023-04-06T07:03:45;6.40;77.50
16437;DHT22;8328;52.206;21.006;2023-04-06T07:06:11;6.60;76.70
16437;DHT22;8328;52.206;21.006;2023-04-06T07:08:37;6.60;76.50
16437;DHT22;8328;52.206;21.006;2023-04-06T07:11:03;6.70;76.50
16437;DHT22;8328;52.206;21.006;2023-04-06T07:13:29;7.00;75.80
16437;DHT22;8328;52.206;21.006;2023-04-06T07:15:54;7.20;75.50
16437;DHT22;8328;52.206;21.006;2023-04-06T07:18:20;7.40;75.20
16437;DHT22;8328;52.206;21.006;2023-04-06T07:20:46;7.50;74.60
16437;DHT22;8328;52.206;21.006;2023-04-06T07:23:12;7.60;72.70
16437;DHT22;8328;52.206;21.006;2023-04-06T07:25:38;7.50;72.90
16437;DHT22;8328;52.206;21.006;2023-04-06T07:28:04;7.40;73.30
16437;DHT22;8328;52.206;21.006;2023-04-06T07:30:30;7.30;74.10
16437;DHT22;8328;52.206;21.006;2023-04-06T07:32:56;7.50;74.20
16437;DHT22;8328;52.206;21.006;2023-04-06T07:35:26;7.60;73.70
16437;DHT22;8328;52.206;21.006;2023-04-06T07:37:55;7.70;73.00
16437;DHT22;8328;52.206;21.006;2023-04-06T07:40:21;7.60;72.80
16437;DHT22;8328;52.206;21.006;2023-04-06T07:42:48;7.50;72.80
16437;DHT22;8328;52.206;21.006;2023-04-06T07:45:14;7.30;73.70
16437;DHT22;8328;52.206;21.006;2023-04-06T07:47:41;7.30;74.30
16437;DHT22;8328;52.206;21.006;2023-04-06T07:50:07;7.70;74.60
16437;DHT22;8328;52.206;21.006;2023-04-06T07:52:33;7.80;73.70
16437;DHT22;8328;52.206;21.006;2023-04-06T07:54:59;7.80;72.70
16437;DHT22;8328;52.206;21.006;2023-04-06T07:57:25;8.00;73.60
16437;DHT22;8328;52.206;21.006;2023-04-06T07:59:52;8.10;73.20
16437;DHT22;8328;52.206;21.006;2023-04-06T08:02:18;8.20;71.90
16437;DHT22;8328;52.206;21.006;2023-04-06T08:04:45;8.30;73.70
16437;DHT22;8328;52.206;21.006;2023-04-06T08:07:11;8.30;71.30
16437;DHT22;8328;52.206;21.006;2023-04-06T08:09:37;8.10;72.50
16437;DHT22;8328;52.206;21.006;2023-04-06T08:12:03;8.30;72.40
16437;DHT22;8328;52.206;21.006;2023-04-06T08:14:29;7.50;71.30
16437;DHT22;8328;52.206;21.006;2023-04-06T08:16:55;8.50;73.80
16437;DHT22;8328;52.206;21.006;2023-04-06T08:19:21;8.80;72.70
16437;DHT22;8328;52.206;21.006;2023-04-06T08:21:47;9.00;73.10
16437;DHT22;8328;52.206;21.006;2023-04-06T08:24:13;9.10;72.20
16437;DHT22;8328;52.206;21.006;2023-04-06T08:26:39;9.00;73.40
16437;DHT22;8328;52.206;21.006;2023-04-06T08:29:05;9.20;72.90
16437;DHT22;8328;52.206;21.006;2023-04-06T08:31:34;9.50;73.30
16437;DHT22;8328;52.206;21.006;2023-04-06T08:34:01;9.70;72.20
16437;DHT22;8328;52.206;21.006;2023-04-06T08:36:27;9.60;70.80
16437;DHT22;8328;52.206;21.006;2023-04-06T08:38:53;9.80;71.50
16437;DHT22;8328;52.206;21.006;2023-04-06T08:41:19;9.90;70.90
16437;DHT22;8328;52.206;21.006;2023-04-06T08:43:50;9.50;71.10
16437;DHT22;8328;52.206;21.006;2023-04-06T08:46:17;9.30;73.80
16437;DHT22;8328;52.206;21.006;2023-04-06T08:48:44;9.30;76.70
16437;DHT22;8328;52.206;21.006;2023-04-06T08:51:11;8.90;76.10
16437;DHT22;8328;52.206;21.006;2023-04-06T08:53:37;8.30;77.50
16437;DHT22;8328;52.206;21.006;2023-04-06T08:56:04;8.10;80.00
16437;DHT22;8328;52.206;21.006;2023-04-06T08:58:35;8.10;81.50
16437;DHT22;8328;52.206;21.006;2023-04-06T09:01:07;9.50;82.50
16437;DHT22;8328;52.206;21.006;2023-04-06T09:03:40;7.90;82.60
16437;DHT22;8328;52.206;21.006;2023-04-06T09:06:07;7.90;83.00
16437;DHT22;8328;52.206;21.006;2023-04-06T09:08:34;7.80;83.30
16437;DHT22;8328;52.206;21.006;2023-04-06T09:13:50;7.80;82.50
16437;DHT22;8328;52.206;21.006;2023-04-06T09:16:17;7.90;82.40
16437;DHT22;8328;52.206;21.006;2023-04-06T09:18:44;8.00;83.70
16437;DHT22;8328;52.206;21.006;2023-04-06T09:21:10;8.20;84.90
16437;DHT22;8328;52.206;21.006;2023-04-06T09:26:20;8.40;83.00
16437;DHT22;8328;52.206;21.006;2023-04-06T09:28:53;8.70;85.20
16437;DHT22;8328;52.206;21.006;2023-04-06T09:33:50;7.80;84.20
16437;DHT22;8328;52.206;21.006;2023-04-06T09:36:15;7.40;86.50
16437;DHT22;8328;52.206;21.006;2023-04-06T09:43:50;6.70;90.10
16437;DHT22;8328;52.206;21.006;2023-04-06T09:46:17;6.40;90.70
16437;DHT22;8328;52.206;21.006;2023-04-06T09:48:44;6.20;92.40
16437;DHT22;8328;52.206;21.006;2023-04-06T09:51:12;6.20;93.60
16437;DHT22;8328;52.206;21.006;2023-04-06T09:53:42;6.30;94.90
16437;DHT22;8328;52.206;21.006;2023-04-06T09:56:12;6.50;95.10
16437;DHT22;8328;52.206;21.006;2023-04-06T09:58:45;6.60;95.10
16437;DHT22;8328;52.206;21.006;2023-04-06T10:01:15;6.80;95.60
16437;DHT22;8328;52.206;21.006;2023-04-06T10:03:52;6.60;96.80
16437;DHT22;8328;52.206;21.006;2023-04-06T10:06:22;6.10;98.00
16437;DHT22;8328;52.206;21.006;2023-04-06T10:08:52;6.10;99.90
16437;DHT22;8328;52.206;21.006;2023-04-06T10:11:21;6.00;99.90
16437;DHT22;8328;52.206;21.006;2023-04-06T10:13:48;5.30;99.90
16437;DHT22;8328;52.206;21.006;2023-04-06T10:16:17;6.20;99.90
16437;DHT22;8328;52.206;21.006;2023-04-06T10:18:48;6.40;99.90
16437;DHT22;8328;52.206;21.006;2023-04-06T10:21:22;6.70;99.90
16437;DHT22;8328;52.206;21.006;2023-04-06T10:23:52;6.80;99.90
16437;DHT22;8328;52.206;21.006;2023-04-06T10:26:20;6.60;99.90
16437;DHT22;8328;52.206;21.006;2023-04-06T10:28:48;6.70;99.90
16437;DHT22;8328;52.206;21.006;2023-04-06T10:31:14;6.40;99.90
16437;DHT22;8328;52.206;21.006;2023-04-06T10:33:40;6.30;99.90
16437;DHT22;8328;52.206;21.006;2023-04-06T10:36:24;6.30;99.90
16437;DHT22;8328;52.206;21.006;2023-04-06T10:39:00;6.00;99.90
16437;DHT22;8328;52.206;21.006;2023-04-06T10:41:34;4.20;99.90
16437;DHT22;8328;52.206;21.006;2023-04-06T10:44:01;5.50;99.90
16437;DHT22;8328;52.206;21.006;2023-04-06T10:46:31;5.40;99.90
16437;DHT22;8328;52.206;21.006;2023-04-06T10:48:57;5.20;99.90
16437;DHT22;8328;52.206;21.006;2023-04-06T10:51:28;5.10;99.90
16437;DHT22;8328;52.206;21.006;2023-04-06T10:53:54;5.20;99.90
16437;DHT22;8328;52.206;21.006;2023-04-06T10:56:24;5.30;99.90
16437;DHT22;8328;52.206;21.006;2023-04-06T10:58:53;5.50;99.90
16437;DHT22;8328;52.206;21.006;2023-04-06T11:01:20;5.60;99.90
16437;DHT22;8328;52.206;21.006;2023-04-06T11:03:48;3.90;99.90
16437;DHT22;8328;52.206;21.006;2023-04-06T11:06:27;5.60;99.90
16437;DHT22;8328;52.206;21.006;2023-04-06T11:08:55;5.60;99.90
16437;DHT22;8328;52.206;21.006;2023-04-06T11:11:25;5.50;99.90
16437;DHT22;8328;52.206;21.006;2023-04-06T11:13:57;5.60;99.90
16437;DHT22;8328;52.206;21.006;2023-04-06T11:16:31;5.60;99.90
16437;DHT22;8328;52.206;21.006;2023-04-06T11:18:58;5.50;99.90
16437;DHT22;8328;52.206;21.006;2023-04-06T11:21:42;5.50;99.90
16437;DHT22;8328;52.206;21.006;2023-04-06T11:24:21;4.30;99.90
16437;DHT22;8328;52.206;21.006;2023-04-06T11:26:47;5.50;99.90
16437;DHT22;8328;52.206;21.006;2023-04-06T11:29:24;5.20;99.90
16437;DHT22;8328;52.206;21.006;2023-04-06T11:31:59;5.30;99.90
16437;DHT22;8328;52.206;21.006;2023-04-06T11:34:29;5.40;99.90
16437;DHT22;8328;52.206;21.006;2023-04-06T11:37:00;5.60;99.90
16437;DHT22;8328;52.206;21.006;2023-04-06T11:39:27;5.50;99.90
16437;DHT22;8328;52.206;21.006;2023-04-06T11:41:59;5.70;99.90
16437;DHT22;8328;52.206;21.006;2023-04-06T11:44:40;5.90;99.90
16437;DHT22;8328;52.206;21.006;2023-04-06T11:47:09;5.90;99.90
16437;DHT22;8328;52.206;21.006;2023-04-06T11:49:41;5.70;99.90
16437;DHT22;8328;52.206;21.006;2023-04-06T11:52:22;5.70;99.90
16437;DHT22;8328;52.206;21.006;2023-04-06T11:54:49;5.80;99.90
16437;DHT22;8328;52.206;21.006;2023-04-06T11:57:16;5.70;99.90
16437;DHT22;8328;52.206;21.006;2023-04-06T11:59:43;5.70;99.90
16437;DHT22;8328;52.206;21.006;2023-04-06T12:02:09;3.60;99.90
16437;DHT22;8328;52.206;21.006;2023-04-06T12:04:36;6.00;99.90
16437;DHT22;8328;52.206;21.006;2023-04-06T12:07:04;6.00;99.90
16437;DHT22;8328;52.206;21.006;2023-04-06T12:09:30;5.90;99.90
16437;DHT22;8328;52.206;21.006;2023-04-06T12:11:56;5.90;99.90
16437;DHT22;8328;52.206;21.006;2023-04-06T12:14:23;6.10;99.90
16437;DHT22;8328;52.206;21.006;2023-04-06T12:16:50;5.10;99.90
16437;DHT22;8328;52.206;21.006;2023-04-06T12:19:16;6.20;99.90
16437;DHT22;8328;52.206;21.006;2023-04-06T12:21:42;6.20;99.90
16437;DHT22;8328;52.206;21.006;2023-04-06T12:24:08;6.30;99.90
16437;DHT22;8328;52.206;21.006;2023-04-06T12:26:35;6.20;99.90
16437;DHT22;8328;52.206;21.006;2023-04-06T12:29:02;6.00;99.90
16437;DHT22;8328;52.206;21.006;2023-04-06T12:31:36;5.90;99.90
16437;DHT22;8328;52.206;21.006;2023-04-06T12:34:04;6.00;99.90
16437;DHT22;8328;52.206;21.006;2023-04-06T12:36:30;5.50;99.90
16437;DHT22;8328;52.206;21.006;2023-04-06T12:38:56;6.00;99.90
16437;DHT22;8328;52.206;21.006;2023-04-06T12:41:22;5.90;99.90
16437;DHT22;8328;52.206;21.006;2023-04-06T12:43:49;6.10;99.90
16437;DHT22;8328;52.206;21.006;2023-04-06T12:46:17;6.30;99.90
16437;DHT22;8328;52.206;21.006;2023-04-06T12:48:43;6.40;99.90
16437;DHT22;8328;52.206;21.006;2023-04-06T12:51:09;6.10;99.90
16437;DHT22;8328;52.206;21.006;2023-04-06T12:53:35;5.80;99.90
16437;DHT22;8328;52.206;21.006;2023-04-06T12:56:02;5.80;99.90
16437;DHT22;8328;52.206;21.006;2023-04-06T12:58:36;5.70;99.90
16437;DHT22;8328;52.206;21.006;2023-04-06T13:01:06;5.80;99.90
16437;DHT22;8328;52.206;21.006;2023-04-06T13:03:32;5.70;99.90
16437;DHT22;8328;52.206;21.006;2023-04-06T13:05:59;5.80;99.90
16437;DHT22;8328;52.206;21.006;2023-04-06T13:08:26;5.90;99.90
16437;DHT22;8328;52.206;21.006;2023-04-06T13:10:52;6.00;99.90
16437;DHT22;8328;52.206;21.006;2023-04-06T13:13:24;6.10;99.90
16437;DHT22;8328;52.206;21.006;2023-04-06T13:15:51;6.10;99.90
16437;DHT22;8328;52.206;21.006;2023-04-06T13:18:17;6.20;99.90
16437;DHT22;8328;52.206;21.006;2023-04-06T13:20:43;6.20;99.90
16437;DHT22;8328;52.206;21.006;2023-04-06T13:23:09;6.20;99.90
16437;DHT22;8328;52.206;21.006;2023-04-06T13:25:39;6.30;99.90
16437;DHT22;8328;52.206;21.006;2023-04-06T13:28:13;6.10;99.90
16437;DHT22;8328;52.206;21.006;2023-04-06T13:30:41;5.90;99.90
16437;DHT22;8328;52.206;21.006;2023-04-06T13:33:17;5.80;99.90
16437;DHT22;8328;52.206;21.006;2023-04-06T13:35:46;5.60;99.90
16437;DHT22;8328;52.206;21.006;2023-04-06T13:38:15;5.40;99.90
16437;DHT22;8328;52.206;21.006;2023-04-06T13:40:42;5.40;99.90
16437;DHT22;8328;52.206;21.006;2023-04-06T13:43:11;5.40;99.90
16437;DHT22;8328;52.206;21.006;2023-04-06T13:45:40;5.50;99.90
16437;DHT22;8328;52.206;21.006;2023-04-06T13:48:07;5.50;99.90
16437;DHT22;8328;52.206;21.006;2023-04-06T13:50:35;5.50;99.90
16437;DHT22;8328;52.206;21.006;2023-04-06T13:53:00;5.50;99.90
16437;DHT22;8328;52.206;21.006;2023-04-06T13:55:26;5.60;99.90
16437;DHT22;8328;52.206;21.006;2023-04-06T13:57:53;5.60;99.90
16437;DHT22;8328;52.206;21.006;2023-04-06T14:00:21;5.70;99.90
16437;DHT22;8328;52.206;21.006;2023-04-06T14:02:46;5.60;99.90
16437;DHT22;8328;52.206;21.006;2023-04-06T14:05:12;5.40;99.90
16437;DHT22;8328;52.206;21.006;2023-04-06T14:07:39;5.50;99.90
16437;DHT22;8328;52.206;21.006;2023-04-06T14:10:06;5.30;99.90
16437;DHT22;8328;52.206;21.006;2023-04-06T14:12:40;5.30;99.90
16437;DHT22;8328;52.206;21.006;2023-04-06T14:15:06;5.30;99.90
16437;DHT22;8328;52.206;21.006;2023-04-06T14:17:33;5.40;99.90
16437;DHT22;8328;52.206;21.006;2023-04-06T14:19:59;5.30;99.90
16437;DHT22;8328;52.206;21.006;2023-04-06T14:22:25;5.40;99.90
16437;DHT22;8328;52.206;21.006;2023-04-06T14:24:52;5.60;99.90
16437;DHT22;8328;52.206;21.006;2023-04-06T14:27:18;5.60;99.90
16437;DHT22;8328;52.206;21.006;2023-04-06T14:29:44;5.70;99.90
16437;DHT22;8328;52.206;21.006;2023-04-06T14:32:10;5.70;99.90
16437;DHT22;8328;52.206;21.006;2023-04-06T14:34:44;5.70;99.90
16437;DHT22;8328;52.206;21.006;2023-04-06T14:37:16;5.90;99.90
16437;DHT22;8328;52.206;21.006;2023-04-06T14:39:43;5.90;99.90
16437;DHT22;8328;52.206;21.006;2023-04-06T14:42:29;5.90;99.90
16437;DHT22;8328;52.206;21.006;2023-04-06T14:45:02;6.00;99.90
16437;DHT22;8328;52.206;21.006;2023-04-06T14:47:32;4.10;99.90
16437;DHT22;8328;52.206;21.006;2023-04-06T14:50:08;5.70;99.90
16437;DHT22;8328;52.206;21.006;2023-04-06T14:52:35;5.80;99.90
16437;DHT22;8328;52.206;21.006;2023-04-06T14:55:01;5.60;99.90
16437;DHT22;8328;52.206;21.006;2023-04-06T14:57:27;5.60;99.90
16437;DHT22;8328;52.206;21.006;2023-04-06T14:59:57;5.10;99.90
16437;DHT22;8328;52.206;21.006;2023-04-06T15:02:26;5.80;99.90
16437;DHT22;8328;52.206;21.006;2023-04-06T15:04:55;4.50;99.90
16437;DHT22;8328;52.206;21.006;2023-04-06T15:07:21;5.80;99.90
16437;DHT22;8328;52.206;21.006;2023-04-06T15:09:47;5.90;99.90
16437;DHT22;8328;52.206;21.006;2023-04-06T15:12:12;6.00;99.90
16437;DHT22;8328;52.206;21.006;2023-04-06T15:14:38;6.00;99.90
16437;DHT22;8328;52.206;21.006;2023-04-06T15:17:04;6.00;99.90
16437;DHT22;8328;52.206;21.006;2023-04-06T15:19:31;5.40;99.90
16437;DHT22;8328;52.206;21.006;2023-04-06T15:21:57;5.90;99.90
16437;DHT22;8328;52.206;21.006;2023-04-06T15:24:23;5.80;99.90
16437;DHT22;8328;52.206;21.006;2023-04-06T15:26:48;5.90;99.90
16437;DHT22;8328;52.206;21.006;2023-04-06T15:29:14;6.00;99.90
16437;DHT22;8328;52.206;21.006;2023-04-06T15:31:40;5.90;99.90
16437;DHT22;8328;52.206;21.006;2023-04-06T15:34:07;5.80;99.90
16437;DHT22;8328;52.206;21.006;2023-04-06T15:36:36;5.60;99.90
16437;DHT22;8328;52.206;21.006;2023-04-06T15:39:03;5.60;99.90
16437;DHT22;8328;52.206;21.006;2023-04-06T15:41:31;5.40;99.90
16437;DHT22;8328;52.206;21.006;2023-04-06T15:43:57;5.40;99.90
16437;DHT22;8328;52.206;21.006;2023-04-06T15:46:23;5.30;99.90
16437;DHT22;8328;52.206;21.006;2023-04-06T15:48:49;5.20;99.90
16437;DHT22;8328;52.206;21.006;2023-04-06T15:51:16;5.30;99.90
16437;DHT22;8328;52.206;21.006;2023-04-06T15:53:42;5.30;99.90
16437;DHT22;8328;52.206;21.006;2023-04-06T15:56:08;5.20;99.90
16437;DHT22;8328;52.206;21.006;2023-04-06T15:58:35;6.60;99.90